Time;durP1;ratioP1;P1;durP2;ratioP2;P2;SDS_P1;SDS_P2;PMS_P1;PMS_P2;Temp;Humidity;BMP_temperature;BMP_pressure;BME280_temperature;BME280_humidity;BME280_pressure;Samples;Min_cycle;Max_cycle;Signal;HPM_P1;HPM_P2
2022/07/04 00:00:04;;;;;;;7.53;1.90;;;;;;;-146.64;100.00;115195.03;5011992;28;20042;-79
2022/07/04 00:02:29;;;;;;;3.95;1.60;;;;;;;-146.64;100.00;114928.06;5028650;28;20049;-79
2022/07/04 00:04:54;;;;;;;5.23;1.47;;;;;;;-146.64;100.00;116797.16;4988206;28;20034;-79
2022/07/04 00:07:20;;;;;;;5.10;1.63;;;;;;;-146.64;100.00;115996.03;4991712;28;20034;-79
2022/07/04 00:09:45;;;;;;;6.40;2.47;;;;;;;-146.64;100.00;117064.25;4993705;28;20018;-78
2022/07/04 00:12:10;;;;;;;3.93;1.77;;;;;;;-146.64;100.00;117598.47;5010230;28;20081;-79
2022/07/04 00:14:37;;;;;;;4.87;1.43;;;;;;;-146.64;100.00;118132.78;5007737;28;20030;-78
2022/07/04 00:17:03;;;;;;;3.58;1.58;;;;;;;-146.64;100.00;118399.94;5010838;28;20359;-79
2022/07/04 00:19:28;;;;;;;8.00;1.63;;;;;;;-146.64;100.00;118399.94;5003263;28;20037;-79
2022/07/04 00:21:54;;;;;;;4.97;1.53;;;;;;;-146.64;100.00;118132.78;5011220;28;20539;-78
2022/07/04 00:24:19;;;;;;;3.80;1.40;;;;;;;-146.64;100.00;118132.78;4990505;28;20034;-79
2022/07/04 00:26:44;;;;;;;4.90;1.87;;;;;;;-146.64;100.00;117598.47;4995677;28;20033;-79
2022/07/04 00:29:10;;;;;;;8.57;1.33;;;;;;;-146.64;100.00;117598.47;5006448;28;20105;-79
2022/07/04 00:31:36;;;;;;;6.17;1.70;;;;;;;-146.64;100.00;118132.78;5003423;28;20166;-80
2022/07/04 00:34:05;;;;;;;10.70;1.88;;;;;;;-146.64;100.00;117865.63;4992254;28;20130;-79
2022/07/04 00:36:30;;;;;;;8.48;1.95;;;;;;;-146.64;100.00;117865.63;5011064;28;20662;-78
2022/07/04 00:38:56;;;;;;;8.07;2.33;;;;;;;-146.64;100.00;117865.63;5010736;28;20026;-78
2022/07/04 00:41:21;;;;;;;5.47;1.87;;;;;;;-146.64;100.00;117331.34;5009586;28;20053;-79
2022/07/04 00:44:04;;;;;;;4.90;1.77;;;;;;;-146.64;100.00;117865.63;5010032;28;20469;-79
2022/07/04 00:46:29;;;;;;;6.57;1.70;;;;;;;-146.64;100.00;118132.78;4993241;28;20508;-79
2022/07/04 00:48:55;;;;;;;11.27;2.97;;;;;;;-146.64;100.00;118399.94;4991266;28;20022;-78
2022/07/04 00:51:20;;;;;;;8.90;1.53;;;;;;;-146.64;100.00;118399.94;5006397;28;20037;-78
2022/07/04 00:53:46;;;;;;;6.63;1.97;;;;;;;-146.64;100.00;118132.78;4987132;28;20385;-78
2022/07/04 00:56:11;;;;;;;7.90;1.70;;;;;;;-146.64;100.00;117865.63;4994480;28;20401;-79
2022/07/04 00:58:37;;;;;;;12.70;1.80;;;;;;;-146.64;100.00;118399.94;4993018;28;20520;-78
2022/07/04 01:01:02;;;;;;;2.57;1.50;;;;;;;-146.64;100.00;118399.94;5011023;28;20026;-78
2022/07/04 01:03:28;;;;;;;6.50;2.57;;;;;;;-146.64;100.00;118402.03;5003331;28;20029;-78
2022/07/04 01:05:53;;;;;;;2.90;1.57;;;;;;;-146.64;100.00;118399.94;5004686;28;20504;-78
2022/07/04 01:08:19;;;;;;;2.10;1.10;;;;;;;-146.64;100.00;118132.78;4993673;28;20091;-79
2022/07/04 01:10:44;;;;;;;3.73;1.30;;;;;;;-146.64;100.00;118399.94;4989395;28;20083;-78
2022/07/04 01:13:22;;;;;;;5.00;1.87;;;;;;;-146.64;100.00;118402.03;4991543;28;20030;-79
2022/07/04 01:15:47;;;;;;;5.95;1.63;;;;;;;-146.64;100.00;118402.03;5005904;28;20037;-78
2022/07/04 01:18:13;;;;;;;6.57;1.83;;;;;;;-146.64;100.00;118402.03;4992800;28;20033;-80
2022/07/04 01:20:38;;;;;;;6.30;1.53;;;;;;;-146.64;100.00;118402.03;4992836;28;20038;-78
2022/07/04 01:23:04;;;;;;;5.07;1.50;;;;;;;-146.64;100.00;118402.03;4994553;28;20025;-78
2022/07/04 01:25:30;;;;;;;3.60;2.10;;;;;;;-146.64;100.00;118402.03;5009861;28;20034;-78
2022/07/04 01:27:55;;;;;;;4.97;1.90;;;;;;;-146.64;100.00;118402.03;5011933;28;20030;-78
2022/07/04 01:30:21;;;;;;;6.47;1.67;;;;;;;-146.64;100.00;118402.03;4994249;28;20496;-79
2022/07/04 01:32:46;;;;;;;6.93;1.70;;;;;;;-146.64;100.00;118402.03;5009018;28;20589;-79
2022/07/04 01:35:13;;;;;;;6.63;1.97;;;;;;;-146.64;100.00;118402.03;4973366;28;20092;-79
2022/07/04 01:37:38;;;;;;;5.22;1.75;;;;;;;-146.64;100.00;118402.03;4999798;28;20531;-79
2022/07/04 01:40:05;;;;;;;4.30;2.07;;;;;;;-146.64;100.00;118402.03;5001021;28;20030;-79
2022/07/04 01:42:31;;;;;;;3.67;1.55;;;;;;;-146.64;100.00;118402.03;5008876;28;20397;-78
2022/07/04 01:44:57;;;;;;;5.38;1.92;;;;;;;-146.64;100.00;118402.03;4997367;28;20026;-79
2022/07/04 01:47:22;;;;;;;8.80;2.83;;;;;;;-146.64;100.00;118402.03;5002497;28;20088;-79
2022/07/04 01:49:47;;;;;;;3.67;1.87;;;;;;;-146.64;100.00;118402.03;5008336;28;20111;-80
2022/07/04 01:52:15;;;;;;;3.90;1.73;;;;;;;-146.64;100.00;118402.03;5008552;28;20033;-80
2022/07/04 01:54:41;;;;;;;4.38;1.63;;;;;;;-146.64;100.00;118402.03;4993001;28;20121;-80
2022/07/04 01:57:06;;;;;;;2.37;1.63;;;;;;;-146.64;100.00;118402.03;5007645;28;20197;-79
2022/07/04 02:02:22;;;;;;;8.00;2.00;;;;;;;-146.64;100.00;118402.03;5010542;28;20041;-81
2022/07/04 02:04:47;;;;;;;4.38;1.75;;;;;;;-146.64;100.00;118402.03;5008887;28;20033;-79
2022/07/04 02:07:12;;;;;;;8.43;2.40;;;;;;;-146.64;100.00;118402.03;5003233;28;20524;-80
2022/07/04 02:09:38;;;;;;;4.37;2.17;;;;;;;-146.64;100.00;118402.03;5008091;28;20061;-80
2022/07/04 02:14:48;;;;;;;4.45;2.28;;;;;;;-146.64;100.00;118402.03;5003550;28;20033;-79
2022/07/04 02:17:13;;;;;;;6.40;1.90;;;;;;;-146.64;100.00;118402.03;4990748;28;20469;-79
2022/07/04 02:19:38;;;;;;;6.87;1.70;;;;;;;-146.64;100.00;118402.03;5001196;28;20049;-79
2022/07/04 02:22:04;;;;;;;8.20;2.33;;;;;;;-146.64;100.00;118402.03;5004149;28;20030;-79
2022/07/04 02:24:29;;;;;;;3.50;2.00;;;;;;;-146.64;100.00;118402.03;5002930;28;20034;-80
2022/07/04 02:26:55;;;;;;;7.43;2.60;;;;;;;-146.64;100.00;118402.03;5007145;28;20504;-79
2022/07/04 02:29:20;;;;;;;8.60;2.50;;;;;;;-146.64;100.00;118402.03;4989624;28;20519;-79
2022/07/04 02:31:47;;;;;;;7.30;2.07;;;;;;;-146.64;100.00;118402.03;5008643;28;20477;-80
2022/07/04 02:34:12;;;;;;;9.55;2.22;;;;;;;-146.64;100.00;118402.03;5000481;28;20037;-79
2022/07/04 02:36:38;;;;;;;5.37;1.83;;;;;;;-146.64;100.00;118402.03;5010111;28;20030;-79
2022/07/04 02:39:07;;;;;;;3.03;1.90;;;;;;;-146.64;100.00;118402.03;5009564;28;20445;-79
2022/07/04 02:41:33;;;;;;;6.03;2.00;;;;;;;-146.64;100.00;118402.03;4993372;28;20390;-79
2022/07/04 02:43:59;;;;;;;6.55;2.15;;;;;;;-146.64;100.00;118402.03;4993829;28;20034;-79
2022/07/04 02:46:24;;;;;;;4.87;2.83;;;;;;;-146.64;100.00;118402.03;4992842;28;20096;-79
2022/07/04 02:48:50;;;;;;;6.93;1.80;;;;;;;-146.64;100.00;118402.03;4999124;28;20022;-78
2022/07/04 02:51:16;;;;;;;7.33;2.33;;;;;;;-146.64;100.00;118402.03;5007457;28;20069;-79
2022/07/04 02:53:41;;;;;;;9.27;2.77;;;;;;;-146.64;100.00;118402.03;4992394;28;20065;-80
2022/07/04 02:56:06;;;;;;;6.80;1.87;;;;;;;-146.64;100.00;118402.03;4991739;28;20030;-79
2022/07/04 02:58:32;;;;;;;9.93;1.93;;;;;;;-146.64;100.00;118402.03;5004910;28;20096;-79
2022/07/04 03:00:58;;;;;;;4.03;1.87;;;;;;;-146.64;100.00;118402.03;5007266;28;20069;-80
2022/07/04 03:03:24;;;;;;;4.53;1.90;;;;;;;-146.64;100.00;118402.03;5007815;28;20333;-78
2022/07/04 03:05:49;;;;;;;5.87;1.70;;;;;;;-146.64;100.00;118402.03;4994486;28;20098;-78
2022/07/04 03:08:14;;;;;;;10.40;2.10;;;;;;;-146.64;100.00;118402.03;4981847;28;20030;-79
2022/07/04 03:10:40;;;;;;;5.03;2.43;;;;;;;-146.64;100.00;118402.03;4989593;28;20145;-79
2022/07/04 03:13:05;;;;;;;6.73;2.33;;;;;;;-146.64;100.00;118402.03;5005903;28;20034;-78
2022/07/04 03:15:31;;;;;;;7.20;2.80;;;;;;;-146.64;100.00;118402.03;4983500;28;20042;-81
2022/07/04 03:17:58;;;;;;;9.82;2.35;;;;;;;-146.64;100.00;118402.03;5010051;28;20372;-79
2022/07/04 03:20:23;;;;;;;3.88;1.60;;;;;;;-146.64;100.00;118402.03;5007660;28;20469;-79
2022/07/04 03:22:51;;;;;;;5.30;2.27;;;;;;;-146.64;100.00;118402.03;4989656;28;20054;-78
2022/07/04 03:25:17;;;;;;;6.75;2.47;;;;;;;-146.64;100.00;118402.03;4989144;28;20088;-80
2022/07/04 03:27:42;;;;;;;11.93;2.23;;;;;;;-146.64;100.00;118402.03;4989874;28;20034;-81
2022/07/04 03:30:08;;;;;;;6.27;2.40;;;;;;;-146.64;100.00;118402.03;5003922;28;20489;-80
2022/07/04 03:32:33;;;;;;;6.20;2.70;;;;;;;-146.64;100.00;118402.03;5002532;28;20036;-81
2022/07/04 03:35:00;;;;;;;7.33;2.53;;;;;;;-146.64;100.00;118402.03;4992480;28;20037;-80
2022/07/04 03:37:25;;;;;;;;;;;;;;;-146.64;100.00;118402.03;4992662;28;20231;-81
2022/07/04 03:39:51;;;;;;;10.18;3.20;;;;;;;-146.64;100.00;118402.03;5007846;28;20004;-80
2022/07/04 03:42:16;;;;;;;13.70;3.07;;;;;;;-146.64;100.00;118402.03;4987602;28;20077;-80
2022/07/04 03:44:42;;;;;;;6.27;2.33;;;;;;;-146.64;100.00;118402.03;4994672;28;20504;-80
2022/07/04 03:47:07;;;;;;;9.90;3.03;;;;;;;-146.64;100.00;118402.03;4993013;28;20393;-80
2022/07/04 03:49:32;;;;;;;5.13;3.27;;;;;;;-146.64;100.00;118402.03;4988663;28;20385;-80
2022/07/04 03:51:58;;;;;;;9.60;3.50;;;;;;;-146.64;100.00;118402.03;4985982;28;20577;-80
2022/07/04 03:54:23;;;;;;;10.73;2.57;;;;;;;-146.64;100.00;118402.03;4999370;28;20026;-80
2022/07/04 03:56:48;;;;;;;7.23;2.97;;;;;;;-146.64;100.00;118402.03;5004299;28;20164;-79
2022/07/04 03:59:17;;;;;;;12.03;2.67;;;;;;;-146.64;100.00;118402.03;4973272;28;20045;-79
2022/07/04 04:01:42;;;;;;;11.07;2.78;;;;;;;-146.64;100.00;118402.03;5021970;28;20030;-80
2022/07/04 04:06:52;;;;;;;13.32;2.50;;;;;;;-146.64;100.00;118402.03;5007600;28;20037;-80
2022/07/04 04:09:19;;;;;;;8.07;2.30;;;;;;;-146.64;100.00;118402.03;4997713;28;20034;-80
2022/07/04 04:11:45;;;;;;;6.85;2.60;;;;;;;-146.64;100.00;118402.03;4997092;28;20083;-79
2022/07/04 04:14:12;;;;;;;5.30;2.17;;;;;;;-146.64;100.00;118402.03;5007174;28;20214;-80
2022/07/04 04:16:37;;;;;;;;;;;;;;;-146.64;100.00;118402.03;4986632;28;20104;-79
2022/07/04 04:19:05;;;;;;;8.80;3.38;;;;;;;-146.64;100.00;118402.03;4991516;28;19988;-80
2022/07/04 04:21:31;;;;;;;7.32;2.63;;;;;;;-146.64;100.00;118402.03;5008943;28;20121;-80
2022/07/04 04:23:56;;;;;;;11.70;2.83;;;;;;;-146.64;100.00;118402.03;4999870;28;20113;-79
2022/07/04 04:26:22;;;;;;;4.87;2.20;;;;;;;-146.64;100.00;118402.03;4996618;28;20038;-78
2022/07/04 04:28:47;;;;;;;7.13;2.67;;;;;;;-146.64;100.00;118402.03;4985405;28;20522;-80
2022/07/04 04:31:14;;;;;;;13.40;2.87;;;;;;;-146.64;100.00;118402.03;4985132;28;20397;-81
2022/07/04 04:33:40;;;;;;;12.77;2.70;;;;;;;-146.64;100.00;118402.03;5002210;28;20116;-79
2022/07/04 04:36:06;;;;;;;7.82;2.30;;;;;;;-146.64;100.00;118402.03;5001505;28;20049;-79
2022/07/04 04:38:31;;;;;;;11.87;2.60;;;;;;;-146.64;100.00;118402.03;5009745;28;20022;-80
2022/07/04 04:40:56;;;;;;;10.63;2.77;;;;;;;-146.64;100.00;118402.03;4995503;28;20139;-79
2022/07/04 04:43:22;;;;;;;7.70;2.50;;;;;;;-146.64;100.00;118402.03;5002034;28;20037;-79
2022/07/04 04:45:47;;;;;;;6.77;2.73;;;;;;;-146.64;100.00;118402.03;4987283;28;20045;-79
2022/07/04 04:48:14;;;;;;;14.03;3.30;;;;;;;-146.64;100.00;118402.03;5009808;28;20038;-80
2022/07/04 04:50:39;;;;;;;10.10;3.20;;;;;;;-146.64;100.00;118402.03;5011432;28;20168;-79
2022/07/04 04:53:05;;;;;;;7.63;3.03;;;;;;;-146.64;100.00;118402.03;5010941;28;20116;-80
2022/07/04 04:55:31;;;;;;;9.20;2.90;;;;;;;-146.64;100.00;118402.03;5010641;28;20113;-79
2022/07/04 04:57:57;;;;;;;12.75;3.53;;;;;;;-146.64;100.00;118402.03;5003677;28;20038;-80
2022/07/04 05:00:22;;;;;;;15.23;3.30;;;;;;;-146.64;100.00;118402.03;5002674;28;20039;-80
2022/07/04 05:02:47;;;;;;;12.57;3.10;;;;;;;-146.64;100.00;118402.03;4987978;28;20091;-80
2022/07/04 05:05:13;;;;;;;9.20;3.47;;;;;;;-146.64;100.00;118402.03;5011973;28;20045;-80
2022/07/04 05:07:38;;;;;;;14.03;3.10;;;;;;;-146.64;100.00;118402.03;4994528;28;20033;-80
2022/07/04 05:10:04;;;;;;;10.50;3.57;;;;;;;-146.64;100.00;118402.03;5009736;28;20164;-80
2022/07/04 05:12:29;;;;;;;10.97;3.57;;;;;;;-146.64;100.00;118402.03;4995013;28;20038;-80
2022/07/04 05:14:55;;;;;;;10.23;3.80;;;;;;;-146.64;100.00;118402.03;5006884;28;20041;-80
2022/07/04 05:17:20;;;;;;;10.20;3.17;;;;;;;-146.64;100.00;117865.63;5010775;28;20112;-80
2022/07/04 05:19:46;;;;;;;9.00;4.13;;;;;;;-146.64;100.00;114661.13;4994350;28;20037;-80
2022/07/04 05:22:11;;;;;;;8.83;3.20;;;;;;;-146.64;100.00;107993.13;4993687;28;20374;-80
2022/07/04 05:24:40;;;;;;;9.60;3.10;;;;;;;-146.64;100.00;98942.19;5001561;28;20034;-79
2022/07/04 05:27:06;;;;;;;7.50;3.25;;;;;;;-146.64;100.00;90442.06;5009656;28;20030;-80
2022/07/04 05:29:32;;;;;;;10.35;3.22;;;;;;;-146.64;100.00;79842.06;5006964;28;20118;-81
2022/07/04 05:31:57;;;;;;;10.60;3.03;;;;;;;-146.64;100.00;79842.06;4989263;28;20187;-80
2022/07/04 05:34:22;;;;;;;10.13;3.80;;;;;;;-146.64;100.00;78254.47;5007430;28;20072;-80
2022/07/04 05:36:48;;;;;;;13.63;2.53;;;;;;;-146.64;100.00;69533.94;5008889;28;20033;-81
2022/07/04 05:39:13;;;;;;;9.47;2.40;;;;;;;-146.64;100.00;63730.81;5005679;28;20041;-81
2022/07/04 05:41:38;;;;;;;13.70;3.00;;;;;;;-146.64;100.00;82489.44;4995626;28;20030;-80
2022/07/04 05:44:04;;;;;;;10.67;3.27;;;;;;;-146.64;100.00;93627.50;4989850;28;20458;-80
2022/07/04 05:46:29;;;;;;;10.53;3.07;;;;;;;-146.64;100.00;96549.72;5002769;28;20484;-80
2022/07/04 05:48:56;;;;;;;7.77;2.43;;;;;;;-146.64;100.00;98410.41;4983063;28;20533;-80
2022/07/04 05:51:21;;;;;;;8.68;2.80;;;;;;;-146.64;100.00;105329.00;5002293;28;20651;-81
2022/07/04 05:53:47;;;;;;;6.27;2.87;;;;;;;-146.64;100.00;107993.13;5001589;28;20053;-80
2022/07/04 05:56:12;;;;;;;14.77;3.43;;;;;;;-146.64;100.00;110125.69;4990416;28;20120;-81
2022/07/04 05:58:40;;;;;;;10.07;3.20;;;;;;;-146.64;100.00;110925.69;5008632;28;20029;-80
2022/07/04 06:01:06;;;;;;;16.83;3.72;;;;;;;-146.64;100.00;113059.81;4991322;28;20040;-80
2022/07/04 06:03:31;;;;;;;11.73;3.67;;;;;;;-146.64;100.00;112259.38;4983411;28;20485;-80
2022/07/04 06:05:57;;;;;;;10.13;3.73;;;;;;;-146.64;100.00;112526.16;4993947;28;20026;-79
2022/07/04 06:08:23;;;;;;;11.40;3.38;;;;;;;-146.64;100.00;106128.03;5006959;28;20018;-80
2022/07/04 06:10:48;;;;;;;9.90;3.17;;;;;;;-146.64;100.00;89115.53;5007312;28;20207;-80
2022/07/04 06:13:13;;;;;;;5.73;3.13;;;;;;;-146.64;100.00;63730.81;4993645;28;20029;-80
2022/07/04 06:15:39;;;;;;;11.70;3.57;;;;;;;-146.64;100.00;50253.16;5009574;28;20034;-80
2022/07/04 06:18:04;;;;;;;9.47;3.70;;;;;;;-146.64;100.00;35774.22;4993126;28;20124;-81
2022/07/04 06:20:30;;;;;;;8.70;3.47;;;;;;;-146.64;100.00;35128.13;4993111;28;20026;-81
2022/07/04 06:22:55;;;;;;;9.10;3.60;;;;;;;-146.64;100.00;35083.16;5003331;28;20569;-81
2022/07/04 06:25:20;;;;;;;10.57;3.10;;;;;;;-146.64;100.00;35107.69;4990125;28;20034;-81
2022/07/04 06:27:47;;;;;;;9.57;3.20;;;;;;;-146.64;100.00;35185.38;5006054;28;20038;-83
2022/07/04 06:30:13;;;;;;;10.70;2.95;;;;;;;-146.64;100.00;35377.53;4989537;28;20525;-82
2022/07/04 06:32:46;;;;;;;7.53;3.05;;;;;;;-146.64;100.00;35324.38;5000636;28;20080;-81
2022/07/04 06:37:56;;;;;;;12.13;3.22;;;;;;;-146.64;100.00;34862.34;5006174;28;20080;-84
2022/07/04 06:40:22;;;;;;;8.25;3.92;;;;;;;-146.64;100.00;34700.84;4998050;28;20474;-78
2022/07/04 06:42:49;;;;;;;10.43;3.00;;;;;;;-146.64;100.00;35404.13;4997254;28;20402;-80
2022/07/04 06:45:14;;;;;;;13.13;3.33;;;;;;;-146.64;100.00;35582.00;4980562;28;20284;-80
2022/07/04 06:47:40;;;;;;;11.27;3.37;;;;;;;-146.64;99.27;35508.41;4990049;28;20027;-80
2022/07/04 06:50:06;;;;;;;6.95;3.10;;;;;;;-146.64;99.69;35275.31;4988907;28;20018;-77
2022/07/04 06:52:31;;;;;;;9.68;3.38;;;;;;;-146.64;96.30;35490.00;4982714;28;20056;-79
2022/07/04 06:54:56;;;;;;;7.17;3.40;;;;;;;-146.64;95.34;35813.06;4999483;28;20036;-79
2022/07/04 06:57:22;;;;;;;16.70;4.17;;;;;;;-146.64;96.28;35696.50;5002336;28;20030;-79
2022/07/04 06:59:47;;;;;;;8.63;3.20;;;;;;;-146.64;94.86;35680.16;5006468;28;20130;-78
2022/07/04 07:02:12;;;;;;;11.47;3.70;;;;;;;-146.64;96.74;35432.75;4984089;28;20058;-81
2022/07/04 07:04:40;;;;;;;8.60;3.43;;;;;;;-146.64;93.84;35676.06;5007776;28;20030;-79
2022/07/04 07:07:05;;;;;;;11.68;3.70;;;;;;;-146.64;97.58;35708.78;5007326;28;20030;-77
2022/07/04 07:09:30;;;;;;;13.73;4.03;;;;;;;-146.64;96.76;35737.41;4997842;28;20029;-79
2022/07/04 07:11:56;;;;;;;11.00;3.20;;;;;;;-146.64;95.71;35622.91;4976992;28;20041;-80
2022/07/04 07:14:21;;;;;;;11.57;3.53;;;;;;;-146.64;95.00;35588.13;5004887;28;20875;-81
2022/07/04 07:16:46;;;;;;;14.23;3.80;;;;;;;-146.64;94.75;35545.19;4996537;28;20537;-81
2022/07/04 07:19:12;;;;;;;17.13;3.80;;;;;;;-146.64;95.00;35528.84;5001634;28;20457;-82
2022/07/04 07:21:37;;;;;;;8.90;3.63;;;;;;;-146.64;94.46;35698.56;5002060;28;20042;-79
2022/07/04 07:24:03;;;;;;;10.67;4.27;;;;;;;-146.64;92.73;35663.78;4991007;28;20488;-79
2022/07/04 07:26:29;;;;;;;13.60;3.88;;;;;;;-146.64;93.27;35725.13;4989185;28;20022;-79
2022/07/04 07:28:54;;;;;;;11.30;4.15;;;;;;;-146.64;95.36;35643.34;5002552;28;20450;-80
2022/07/04 07:31:20;;;;;;;11.57;4.43;;;;;;;-146.64;93.67;35598.38;4994143;28;20088;-78
2022/07/04 07:33:45;;;;;;;8.97;4.33;;;;;;;-146.64;94.63;35716.97;4996881;28;20400;-80
2022/07/04 07:36:10;;;;;;;6.83;3.57;;;;;;;-146.64;95.75;35512.50;5003486;28;20037;-81
2022/07/04 07:38:36;;;;;;;10.73;4.30;;;;;;;-146.64;94.88;35633.13;4987598;28;20029;-81
2022/07/04 07:41:01;;;;;;;12.90;4.07;;;;;;;-146.64;99.09;35430.69;5002892;28;20034;-78
2022/07/04 07:43:26;;;;;;;13.27;4.97;;;;;;;-146.64;99.20;35561.56;4994957;28;20038;-79
2022/07/04 07:45:52;;;;;;;13.00;4.80;;;;;;;-146.64;95.67;35492.03;5005849;28;20108;-80
2022/07/04 07:48:17;;;;;;;12.70;3.97;;;;;;;-146.64;97.02;35442.97;5003902;28;20022;-78
2022/07/04 07:50:42;;;;;;;13.00;3.07;;;;;;;-146.64;93.15;35667.88;5001573;28;20037;-79
2022/07/04 07:53:08;;;;;;;10.20;3.37;;;;;;;-146.64;98.00;35952.09;5006817;28;20037;-79
2022/07/04 07:55:33;;;;;;;13.30;3.13;;;;;;;-146.64;100.00;35978.69;4993245;28;20041;-78
2022/07/04 07:57:59;;;;;;;9.73;3.83;;;;;;;-146.64;100.00;35537.03;4992305;28;20061;-78
2022/07/04 08:00:25;;;;;;;9.10;3.50;;;;;;;-146.64;100.00;35504.31;4991881;28;20054;-78
2022/07/04 08:05:34;;;;;;;12.90;2.88;;;;;;;-146.64;98.90;35913.25;5000940;28;20038;-79
2022/07/04 08:08:00;;;;;;;8.67;3.07;;;;;;;-146.64;97.81;35866.22;5004178;28;20488;-81
2022/07/04 08:10:25;;;;;;;8.97;3.63;;;;;;;-146.64;97.45;35874.41;4994946;28;20385;-81
2022/07/04 08:12:51;;;;;;;9.50;3.17;;;;;;;-146.64;97.19;35831.47;5006892;28;20040;-81
2022/07/04 08:15:17;;;;;;;5.88;2.80;;;;;;;-146.64;95.59;35868.28;4996611;28;20437;-81
2022/07/04 08:17:42;;;;;;;8.03;2.67;;;;;;;-146.64;91.11;36195.44;4992396;28;20119;-81
2022/07/04 08:20:08;;;;;;;5.23;3.03;;;;;;;-146.64;94.30;36250.66;5000371;28;20021;-80
2022/07/04 08:22:34;;;;;;;11.85;4.03;;;;;;;-146.64;96.25;36134.09;5010741;28;20100;-80
2022/07/04 08:24:59;;;;;;;12.90;4.57;;;;;;;-146.64;99.33;35915.31;5006769;28;20611;-81
2022/07/04 08:27:24;;;;;;;10.47;3.17;;;;;;;-146.64;99.63;35960.28;4992546;28;20192;-81
2022/07/04 08:29:50;;;;;;;12.00;4.07;;;;;;;-146.64;100.00;35843.72;4989574;28;20073;-81
2022/07/04 08:32:15;;;;;;;12.83;3.73;;;;;;;-146.64;98.50;36093.19;4988767;28;20432;-81
2022/07/04 08:34:42;;;;;;;11.50;2.63;;;;;;;-146.64;96.74;35960.28;5004590;28;20397;-81
2022/07/04 08:37:08;;;;;;;8.63;3.15;;;;;;;-146.64;97.74;36044.13;5011518;28;20369;-81
2022/07/04 08:39:34;;;;;;;5.57;2.42;;;;;;;-146.64;95.88;36097.28;4990579;28;20373;-81
2022/07/04 08:42:05;;;;;;;6.97;2.70;;;;;;;-146.64;94.52;36385.63;5005394;28;20135;-81
2022/07/04 08:44:37;;;;;;;7.50;2.85;;;;;;;-146.64;94.64;36273.16;4992241;28;20662;-81
2022/07/04 08:47:03;;;;;;;5.53;2.40;;;;;;;-146.64;94.73;36191.34;5012378;28;20526;-81
2022/07/04 08:49:33;;;;;;;7.00;2.30;;;;;;;-146.64;96.89;36224.09;4991269;28;20124;-81
2022/07/04 08:52:04;;;;;;;10.13;2.72;;;;;;;-146.64;98.00;36089.13;4997486;28;20037;-82
2022/07/04 08:59:59;;;;;;;7.38;2.45;;;;;;;-146.64;93.94;36383.59;5004031;28;20539;-81
2022/07/04 09:02:27;;;;;;;6.20;2.10;;;;;;;-146.64;90.52;36444.94;5010597;28;20037;-81
2022/07/04 09:04:53;;;;;;;9.15;2.95;;;;;;;-146.64;90.90;36424.50;5013984;28;20493;-81
2022/07/04 09:07:18;;;;;;;3.67;2.40;;;;;;;-146.64;92.50;36465.41;5007300;28;20083;-82
2022/07/04 09:09:44;;;;;;;7.63;2.80;;;;;;;-146.64;93.87;36436.75;4988686;28;20057;-81
2022/07/04 09:12:11;;;;;;;7.55;3.00;;;;;;;-146.64;96.82;36224.09;4990708;28;20342;-81
2022/07/04 09:14:36;;;;;;;7.95;3.05;;;;;;;-146.64;93.52;36473.56;4994385;28;20068;-81
2022/07/04 09:17:02;;;;;;;9.23;3.40;;;;;;;-146.64;93.43;36463.34;5000736;28;20118;-81
2022/07/04 09:19:27;;;;;;;3.40;2.15;;;;;;;-146.64;90.63;36579.94;4983748;28;20038;-81
2022/07/04 09:21:52;;;;;;;12.77;2.97;;;;;;;-146.64;91.00;36755.81;5005738;28;20034;-81
2022/07/04 09:24:50;;;;;;;4.50;2.67;;;;;;;-146.64;93.14;36453.13;5004965;28;20034;-80
2022/07/04 09:27:30;;;;;;;15.68;3.30;;;;;;;-146.64;93.16;36518.56;5010596;28;20037;-81
2022/07/04 09:29:55;;;;;;;6.13;2.40;;;;;;;-146.64;90.08;36510.38;5016059;28;20026;-80
2022/07/04 09:32:41;;;;;;;4.50;2.07;;;;;;;-146.64;91.13;36604.47;4995647;28;20048;-82
2022/07/04 09:35:18;;;;;;;9.82;2.22;;;;;;;-146.64;91.47;36594.25;4995300;28;20034;-81
2022/07/04 09:37:46;;;;;;;7.18;2.50;;;;;;;-146.64;92.43;36764.00;4986509;28;20095;-81
2022/07/04 09:40:21;;;;;;;7.55;2.53;;;;;;;-146.64;94.96;36784.44;5003816;28;20045;-81
2022/07/04 09:42:46;;;;;;;6.68;2.50;;;;;;;-146.64;95.75;36825.34;5024059;28;20077;-80
2022/07/04 09:45:12;;;;;;;7.93;2.30;;;;;;;-146.64;96.79;36815.13;4988959;28;20465;-81
2022/07/04 09:47:39;;;;;;;7.33;2.47;;;;;;;-146.64;97.97;36770.13;4980587;28;20112;-81
2022/07/04 09:50:16;;;;;;;6.43;2.85;;;;;;;-146.64;99.35;36680.13;4995609;28;20381;-81
2022/07/04 09:52:49;;;;;;;4.82;2.47;;;;;;;-146.64;99.81;36588.09;5001407;28;20107;-81
2022/07/04 09:55:38;;;;;;;6.43;2.67;;;;;;;-146.64;100.00;36361.09;5011766;28;20403;-81
2022/07/04 09:58:06;;;;;;;6.28;2.15;;;;;;;-146.64;99.72;36424.50;5011011;28;20500;-80
2022/07/04 10:00:34;;;;;;;7.22;2.00;;;;;;;-146.64;100.00;36350.88;4993164;28;20049;-80
2022/07/04 10:03:25;;;;;;;6.50;1.83;;;;;;;-146.64;93.94;36207.72;4990165;28;20128;-82
2022/07/04 10:06:11;;;;;;;8.60;2.00;;;;;;;-146.64;90.37;36436.75;5007426;28;20037;-82
2022/07/04 10:08:38;;;;;;;6.85;2.15;;;;;;;-146.64;91.58;36170.91;5009557;28;20076;-81
2022/07/04 10:11:04;;;;;;;4.97;1.92;;;;;;;-146.64;87.26;36244.53;4992824;28;20044;-81
2022/07/04 10:13:30;;;;;;;5.40;1.60;;;;;;;-146.64;88.65;36226.13;4999967;28;20482;-81
2022/07/04 10:15:55;;;;;;;7.40;1.75;;;;;;;-146.64;86.13;36318.16;4991648;28;20088;-81
2022/07/04 10:18:22;;;;;;;11.63;1.93;;;;;;;-146.64;84.63;36596.28;5006043;28;20040;-82
2022/07/04 10:20:51;;;;;;;7.15;1.40;;;;;;;-146.64;82.60;36575.84;4979491;28;20429;-83
2022/07/04 10:23:18;;;;;;;4.85;1.30;;;;;;;-146.64;79.20;36888.75;5006692;28;20041;-82
2022/07/04 10:25:48;;;;;;;3.05;1.40;;;;;;;-146.64;78.22;36964.44;4993216;28;20025;-81
2022/07/04 10:28:14;;;;;;;1.85;1.00;;;;;;;-146.64;77.71;37013.53;4992506;28;20435;-81
2022/07/04 10:30:40;;;;;;;5.13;1.43;;;;;;;-146.64;78.38;37052.38;4987681;28;20034;-81
2022/07/04 10:33:07;;;;;;;;;;;;;;;-146.64;80.14;37029.88;4991645;28;20286;-81
2022/07/04 10:35:51;;;;;;;3.50;1.40;;;;;;;-146.64;79.35;36833.53;5008653;28;19991;-81
2022/07/04 10:38:24;;;;;;;2.08;1.10;;;;;;;-146.64;76.68;36610.59;5006012;28;20116;-82
2022/07/04 10:41:12;;;;;;;5.40;1.30;;;;;;;-146.64;74.95;36545.16;5021729;28;20370;-82
2022/07/04 10:43:37;;;;;;;;;;;;;;;-146.64;73.42;36373.38;5009684;28;20034;-81
2022/07/04 10:46:12;;;;;;;2.10;1.15;;;;;;;-146.64;73.19;36502.22;5003067;28;19924;-82
2022/07/04 10:48:48;;;;;;;2.75;1.35;;;;;;;-146.64;73.80;36293.59;5006206;28;20031;-82
2022/07/04 10:51:15;;;;;;;3.85;1.30;;;;;;;-146.64;67.82;36473.56;5007131;28;20038;-82
2022/07/04 10:54:00;;;;;;;1.08;0.90;;;;;;;-146.64;66.11;36230.22;5008185;28;20042;-81
2022/07/04 10:56:25;;;;;;;1.33;1.23;;;;;;;-146.64;65.06;36085.03;5008691;28;20468;-81
2022/07/04 10:58:51;;;;;;;1.43;0.80;;;;;;;-146.64;63.52;36269.06;5011987;28;20157;-82
2022/07/04 11:01:18;;;;;;;2.20;0.83;;;;;;;-146.64;63.57;36530.84;4992628;28;20493;-83
2022/07/04 11:03:49;;;;;;;1.00;0.95;;;;;;;-146.64;65.29;36432.69;4992768;28;20095;-82
2022/07/04 11:06:33;;;;;;;6.07;1.23;;;;;;;-146.64;63.61;36080.94;4992509;28;20022;-83
2022/07/04 11:09:16;;;;;;;1.50;0.95;;;;;;;-146.64;65.76;36254.75;5019138;28;20096;-82
2022/07/04 11:11:49;;;;;;;5.85;1.10;;;;;;;-146.64;65.29;36463.34;5010879;28;20032;-83
2022/07/04 11:14:29;;;;;;;6.30;1.00;;;;;;;-146.64;65.57;36612.66;5008785;28;20033;-82
2022/07/04 11:16:54;;;;;;;1.95;1.00;;;;;;;-146.64;68.45;36624.91;5001993;28;20478;-81
2022/07/04 11:19:20;;;;;;;3.40;0.80;;;;;;;-146.64;65.49;36404.03;5003650;28;20029;-83
2022/07/04 11:21:45;;;;;;;1.10;1.00;;;;;;;-146.64;66.38;36224.09;4989149;28;20033;-82
2022/07/04 11:24:11;;;;;;;2.00;0.80;;;;;;;-146.64;65.33;36911.25;4977939;28;21696;-83